Time;durP1;ratioP1;P1;durP2;ratioP2;P2;SDS_P1;SDS_P2;PMS_P1;PMS_P2;Temp;Humidity;BMP_temperature;BMP_pressure;BME280_temperature;BME280_humidity;BME280_pressure;Samples;Min_cycle;Max_cycle;Signal;HPM_P1;HPM_P2
2022/05/19 00:01:46;;;;;;;0.70;0.20;;;23.60;99.90;;;;;;5049932;28;20543;-79
2022/05/19 00:04:14;;;;;;;0.70;0.10;;;23.60;99.90;;;;;;5046938;28;20473;-77
2022/05/19 00:06:43;;;;;;;0.70;0.10;;;23.60;99.90;;;;;;5042093;28;20450;-77
2022/05/19 00:09:12;;;;;;;0.70;0.17;;;23.50;99.90;;;;;;5047846;28;20485;-78
2022/05/19 00:11:41;;;;;;;0.70;0.10;;;23.40;99.90;;;;;;5046418;28;20461;-78
2022/05/19 00:14:09;;;;;;;0.70;0.10;;;23.40;99.90;;;;;;5043890;28;20525;-77
2022/05/19 00:16:38;;;;;;;0.70;0.10;;;23.20;99.90;;;;;;5043339;28;20484;-78
2022/05/19 00:19:06;;;;;;;0.70;0.20;;;23.00;99.90;;;;;;5045593;28;20476;-78
2022/05/19 00:21:35;;;;;;;0.70;0.15;;;22.90;99.90;;;;;;5048852;28;20463;-77
2022/05/19 00:24:05;;;;;;;0.70;0.10;;;22.70;99.90;;;;;;5043930;28;20270;-77
2022/05/19 00:26:33;;;;;;;1.70;1.60;;;22.70;99.90;;;;;;5031656;28;20941;-77
2022/05/19 00:29:01;;;;;;;0.70;0.30;;;22.70;99.90;;;;;;5019130;28;20484;-77
2022/05/19 00:31:29;;;;;;;1.10;0.83;;;22.60;99.90;;;;;;5019585;28;20906;-77
2022/05/19 00:33:58;;;;;;;0.70;0.10;;;22.60;99.90;;;;;;5021860;28;20447;-78
2022/05/19 00:36:26;;;;;;;0.70;0.10;;;22.70;99.90;;;;;;5020463;28;20563;-77
2022/05/19 00:38:54;;;;;;;0.70;0.20;;;22.70;99.90;;;;;;5018666;28;20320;-77
2022/05/19 00:41:24;;;;;;;0.70;0.23;;;22.70;99.90;;;;;;5019310;28;20470;-76
2022/05/19 00:44:00;;;;;;;0.80;0.70;;;22.60;99.90;;;;;;5019623;28;20521;-78
2022/05/19 00:46:37;;;;;;;1.53;0.83;;;22.60;99.90;;;;;;5021002;28;20476;-78
2022/05/19 00:49:10;;;;;;;0.70;0.10;;;22.30;99.90;;;;;;5019460;28;20835;-77
2022/05/19 00:51:45;;;;;;;0.70;0.20;;;22.20;99.90;;;;;;5017181;28;20566;-77
2022/05/19 00:54:17;;;;;;;0.70;0.17;;;22.20;99.90;;;;;;5026463;28;20455;-77
2022/05/19 00:56:50;;;;;;;0.70;0.10;;;22.10;99.90;;;;;;5028972;28;20483;-77
2022/05/19 00:59:24;;;;;;;0.68;0.10;;;22.20;99.90;;;;;;5030471;28;20462;-77
2022/05/19 01:01:52;;;;;;;0.70;0.20;;;22.10;99.90;;;;;;5026558;28;20217;-76
2022/05/19 01:04:25;;;;;;;0.70;0.10;;;22.20;99.90;;;;;;5026704;28;20465;-76
2022/05/19 01:07:02;;;;;;;0.70;0.10;;;22.20;99.90;;;;;;5025479;28;20526;-77
2022/05/19 01:09:34;;;;;;;0.70;0.20;;;22.20;99.90;;;;;;5027486;28;20480;-77
2022/05/19 01:12:06;;;;;;;0.70;0.20;;;22.20;99.90;;;;;;5050816;28;20448;-77
2022/05/19 01:14:34;;;;;;;0.70;0.10;;;22.30;99.90;;;;;;5045659;28;20575;-78
2022/05/19 01:17:05;;;;;;;0.70;0.10;;;22.30;99.90;;;;;;5044429;28;20490;-77
2022/05/19 01:19:36;;;;;;;0.70;0.40;;;22.30;99.90;;;;;;5047416;28;20519;-78
2022/05/19 01:22:11;;;;;;;1.07;0.97;;;22.30;99.90;;;;;;5052671;28;20483;-77
2022/05/19 01:24:48;;;;;;;0.70;0.10;;;22.30;99.90;;;;;;5047944;28;20458;-77
2022/05/19 01:27:17;;;;;;;0.70;0.20;;;22.30;99.90;;;;;;5044199;28;20437;-77
2022/05/19 01:29:45;;;;;;;0.70;0.10;;;22.40;99.90;;;;;;5042638;28;20479;-77
2022/05/19 01:32:24;;;;;;;0.70;0.10;;;22.40;99.90;;;;;;5044408;28;20984;-77
2022/05/19 01:34:52;;;;;;;0.70;0.10;;;22.50;99.90;;;;;;5042539;28;20879;-77
2022/05/19 01:37:21;;;;;;;0.70;0.10;;;22.50;99.90;;;;;;5036899;28;20551;-77
2022/05/19 01:39:54;;;;;;;0.70;0.20;;;22.50;99.90;;;;;;5038241;28;20475;-76
2022/05/19 01:42:36;;;;;;;0.70;0.10;;;22.50;99.90;;;;;;5039665;28;20216;-78
2022/05/19 01:45:12;;;;;;;0.70;0.10;;;22.50;99.90;;;;;;5037127;28;20610;-77
2022/05/19 01:47:44;;;;;;;0.70;0.10;;;22.50;99.90;;;;;;5035079;28;20866;-80
2022/05/19 01:50:22;;;;;;;0.70;0.10;;;22.50;99.90;;;;;;5035873;28;20487;-78
2022/05/19 01:52:57;;;;;;;0.70;0.10;;;22.50;99.90;;;;;;5040001;28;20462;-78
2022/05/19 01:55:31;;;;;;;0.70;0.20;;;22.50;99.90;;;;;;5039676;28;20469;-78
2022/05/19 01:58:04;;;;;;;0.70;0.10;;;22.50;99.90;;;;;;5042138;28;20479;-78
2022/05/19 02:00:33;;;;;;;0.70;0.10;;;22.50;99.90;;;;;;5046044;28;20515;-77
2022/05/19 02:03:05;;;;;;;0.70;0.20;;;22.50;99.90;;;;;;5040696;28;20459;-78
2022/05/19 02:05:44;;;;;;;0.70;0.10;;;22.50;99.90;;;;;;5042488;28;20440;-77
2022/05/19 02:08:15;;;;;;;0.70;0.10;;;22.50;99.90;;;;;;5034243;28;20946;-77
2022/05/19 02:10:48;;;;;;;0.70;0.10;;;22.40;99.90;;;;;;5029317;23;20499;-76
2022/05/19 02:13:18;;;;;;;0.70;0.10;;;22.30;99.90;;;;;;5013849;28;20453;-75
2022/05/19 02:15:50;;;;;;;0.70;0.20;;;22.30;99.90;;;;;;5010950;28;20521;-75
2022/05/19 02:18:23;;;;;;;0.70;0.10;;;22.30;99.90;;;;;;5009976;28;20476;-74
2022/05/19 02:20:53;;;;;;;0.70;0.20;;;22.30;99.90;;;;;;5010351;28;20832;-75
2022/05/19 02:23:22;;;;;;;0.70;0.10;;;22.30;99.90;;;;;;5010693;28;20528;-74
2022/05/19 02:25:52;;;;;;;0.70;0.10;;;22.30;99.90;;;;;;5011244;28;20440;-76
2022/05/19 02:28:28;;;;;;;0.70;0.20;;;22.20;99.90;;;;;;4991424;28;20522;-73
2022/05/19 02:30:57;;;;;;;0.70;0.20;;;22.10;99.90;;;;;;4992028;28;20470;-73
2022/05/19 02:33:26;;;;;;;0.70;0.20;;;21.90;99.90;;;;;;5003579;28;20459;-73
2022/05/19 02:35:54;;;;;;;0.70;0.20;;;21.80;99.90;;;;;;5011147;28;20448;-76
2022/05/19 02:38:23;;;;;;;0.70;0.10;;;21.70;99.90;;;;;;5010940;28;20498;-75
2022/05/19 02:40:51;;;;;;;0.70;0.10;;;21.60;99.90;;;;;;5010658;28;20469;-74
2022/05/19 02:43:21;;;;;;;0.70;0.20;;;21.50;99.90;;;;;;5011006;28;20444;-74
2022/05/19 02:45:49;;;;;;;0.70;0.10;;;21.50;99.90;;;;;;5010652;28;20816;-75
2022/05/19 02:48:18;;;;;;;0.70;0.10;;;21.40;99.90;;;;;;5010564;28;20455;-74
2022/05/19 02:50:48;;;;;;;0.70;0.10;;;21.40;99.90;;;;;;5011037;28;20469;-74
2022/05/19 02:53:17;;;;;;;0.70;0.10;;;21.40;99.90;;;;;;5010709;28;20801;-75
2022/05/19 02:55:45;;;;;;;0.70;0.20;;;21.40;99.90;;;;;;5010826;28;20460;-76
2022/05/19 02:58:14;;;;;;;0.70;0.10;;;21.40;99.90;;;;;;5010805;28;20488;-76
2022/05/19 03:00:47;;;;;;;0.70;0.10;;;21.30;99.90;;;;;;5011069;28;20532;-74
2022/05/19 03:03:15;;;;;;;0.70;0.10;;;21.20;99.90;;;;;;5011148;28;20656;-76
2022/05/19 03:05:44;;;;;;;0.70;0.20;;;21.20;99.90;;;;;;5010570;28;20480;-74
2022/05/19 03:08:12;;;;;;;0.70;0.10;;;21.20;99.90;;;;;;5010662;28;20448;-74
2022/05/19 03:10:42;;;;;;;0.70;0.20;;;21.20;99.90;;;;;;5011089;28;20851;-74
2022/05/19 03:13:17;;;;;;;0.70;0.10;;;21.20;99.90;;;;;;5011183;28;20453;-76
2022/05/19 03:15:46;;;;;;;0.70;0.10;;;21.20;99.90;;;;;;5011408;28;20455;-75
2022/05/19 03:18:15;;;;;;;0.70;0.13;;;21.20;99.90;;;;;;5010840;28;20230;-74
2022/05/19 03:20:45;;;;;;;0.70;0.10;;;21.20;99.90;;;;;;5013986;28;20987;-74
2022/05/19 03:23:13;;;;;;;0.70;0.10;;;21.30;99.90;;;;;;5015270;28;20447;-74
2022/05/19 03:25:41;;;;;;;0.70;0.10;;;21.30;99.90;;;;;;5014881;28;20201;-74
2022/05/19 03:28:13;;;;;;;0.70;0.37;;;21.40;99.90;;;;;;5014304;28;20470;-74
2022/05/19 03:30:41;;;;;;;0.70;0.10;;;21.30;99.90;;;;;;5014416;28;20452;-75
2022/05/19 03:33:10;;;;;;;0.70;0.20;;;21.30;99.90;;;;;;5014355;28;20614;-74
2022/05/19 03:35:39;;;;;;;0.70;0.20;;;21.30;99.90;;;;;;5013761;28;20455;-76
2022/05/19 03:38:07;;;;;;;0.70;0.10;;;21.30;99.90;;;;;;5011072;28;20464;-75
2022/05/19 03:40:36;;;;;;;0.70;0.20;;;21.30;99.90;;;;;;5013636;28;20555;-75
2022/05/19 03:43:03;;;;;;;0.70;0.20;;;21.20;99.90;;;;;;5014677;28;20456;-75
2022/05/19 03:45:38;;;;;;;0.70;0.17;;;21.20;99.90;;;;;;5014269;28;20821;-76
2022/05/19 03:48:07;;;;;;;1.00;0.70;;;21.20;99.90;;;;;;5014542;28;20459;-75
2022/05/19 03:50:36;;;;;;;0.70;0.10;;;21.30;99.90;;;;;;5014451;28;20466;-74
2022/05/19 03:53:04;;;;;;;0.70;0.10;;;21.30;99.90;;;;;;5013884;28;20448;-74
2022/05/19 03:55:32;;;;;;;0.70;0.20;;;21.30;99.90;;;;;;5013641;28;20454;-73
2022/05/19 03:58:00;;;;;;;0.70;0.10;;;21.30;99.90;;;;;;5013684;28;20455;-75
2022/05/19 04:00:28;;;;;;;0.70;0.17;;;21.30;99.90;;;;;;5014676;28;20485;-75
2022/05/19 04:02:56;;;;;;;0.70;0.20;;;21.30;99.90;;;;;;5014754;28;20448;-74
2022/05/19 04:05:27;;;;;;;0.70;0.10;;;21.30;99.90;;;;;;5014056;28;20448;-73
2022/05/19 04:07:56;;;;;;;0.70;0.10;;;21.40;99.90;;;;;;5014058;28;20799;-75
2022/05/19 04:10:24;;;;;;;0.70;0.10;;;21.60;99.90;;;;;;5013687;28;20834;-75
2022/05/19 04:12:52;;;;;;;0.70;0.20;;;21.60;99.90;;;;;;5014732;28;20448;-75
2022/05/19 04:15:20;;;;;;;0.70;0.10;;;;;;;;;;5015193;28;20460;-74
2022/05/19 04:17:48;;;;;;;0.70;0.10;;;21.80;99.90;;;;;;5014475;28;20436;-74
2022/05/19 04:20:16;;;;;;;0.70;0.10;;;21.80;99.90;;;;;;5014977;28;20233;-73
2022/05/19 04:22:44;;;;;;;0.70;0.20;;;21.80;99.90;;;;;;5015330;28;20813;-75
2022/05/19 04:25:14;;;;;;;0.70;0.10;;;21.70;99.90;;;;;;5014789;28;20975;-75
2022/05/19 04:27:42;;;;;;;0.70;0.20;;;21.70;99.90;;;;;;4998323;28;20481;-76
2022/05/19 04:30:11;;;;;;;0.70;0.10;;;21.60;99.90;;;;;;4994156;28;20227;-75
2022/05/19 04:32:42;;;;;;;0.70;0.10;;;21.60;99.90;;;;;;5011573;28;20448;-75
2022/05/19 04:35:10;;;;;;;0.70;0.10;;;21.60;99.90;;;;;;5013302;28;20961;-76
2022/05/19 04:37:38;;;;;;;0.70;0.20;;;21.60;99.90;;;;;;5014025;28;20475;-75
2022/05/19 04:40:07;;;;;;;0.70;0.10;;;21.70;99.90;;;;;;5014087;28;20495;-75
2022/05/19 04:42:37;;;;;;;0.70;0.13;;;21.70;99.90;;;;;;5014376;28;20444;-76
2022/05/19 04:45:06;;;;;;;0.70;0.20;;;21.70;99.90;;;;;;5012395;28;20561;-73
2022/05/19 04:47:34;;;;;;;0.70;0.20;;;21.70;99.90;;;;;;4993957;28;20480;-75
2022/05/19 04:50:02;;;;;;;0.70;0.20;;;21.70;99.90;;;;;;4993990;28;20570;-73
2022/05/19 04:52:29;;;;;;;0.70;0.20;;;21.70;99.90;;;;;;4993938;28;20446;-74
2022/05/19 04:54:57;;;;;;;0.70;0.10;;;21.70;99.90;;;;;;4993640;28;20449;-74
2022/05/19 04:57:25;;;;;;;0.70;0.10;;;21.60;99.90;;;;;;4993646;28;20827;-76
2022/05/19 04:59:54;;;;;;;0.70;0.20;;;21.50;99.90;;;;;;4993913;28;20494;-72
2022/05/19 05:02:22;;;;;;;0.70;0.10;;;21.50;99.90;;;;;;4993805;28;20450;-75
2022/05/19 05:04:50;;;;;;;0.70;0.20;;;21.50;99.90;;;;;;4992958;28;20964;-75
2022/05/19 05:07:18;;;;;;;0.70;0.10;;;21.60;99.90;;;;;;4993357;28;20449;-74
2022/05/19 05:09:49;;;;;;;0.70;0.17;;;21.60;99.90;;;;;;4993875;28;20472;-74
2022/05/19 05:12:16;;;;;;;0.70;0.10;;;21.60;99.90;;;;;;4993459;28;20468;-73
2022/05/19 05:14:44;;;;;;;0.70;0.10;;;21.70;99.90;;;;;;4992872;28;20978;-71
2022/05/19 05:17:17;;;;;;;0.70;0.20;;;21.70;99.90;;;;;;4992535;28;20456;-71
2022/05/19 05:19:45;;;;;;;0.70;0.10;;;21.70;99.90;;;;;;4996749;28;20563;-72
2022/05/19 05:22:12;;;;;;;0.70;0.20;;;21.80;99.90;;;;;;5003975;28;20820;-69
2022/05/19 05:24:41;;;;;;;0.70;0.10;;;21.90;99.90;;;;;;5004253;28;20488;-71
2022/05/19 05:27:09;;;;;;;0.70;0.10;;;22.00;99.90;;;;;;5002356;28;20539;-75
2022/05/19 05:29:37;;;;;;;0.70;0.10;;;21.90;99.90;;;;;;5010715;28;20218;-74
2022/05/19 05:32:05;;;;;;;0.70;0.20;;;22.30;99.90;;;;;;5011485;28;20504;-73
2022/05/19 05:34:35;;;;;;;0.70;0.10;;;22.30;99.90;;;;;;4992349;28;20752;-73
2022/05/19 05:37:06;;;;;;;0.70;0.20;;;22.30;99.90;;;;;;4992070;28;20537;-73
2022/05/19 05:39:34;;;;;;;0.70;0.20;;;22.10;99.90;;;;;;4993033;28;20596;-72
2022/05/19 05:42:02;;;;;;;0.70;0.20;;;22.10;99.90;;;;;;5009322;28;20504;-73
2022/05/19 05:44:30;;;;;;;0.70;0.10;;;22.00;99.90;;;;;;5011309;28;20820;-72
2022/05/19 05:46:58;;;;;;;0.70;0.10;;;22.10;99.90;;;;;;5011749;28;20456;-73
2022/05/19 05:49:26;;;;;;;0.70;0.13;;;22.10;99.90;;;;;;5011760;28;20464;-73
2022/05/19 05:51:55;;;;;;;0.70;0.10;;;22.10;99.90;;;;;;5011917;28;20434;-72
2022/05/19 05:54:23;;;;;;;0.70;0.20;;;22.10;99.90;;;;;;5012325;28;20449;-73
2022/05/19 05:56:55;;;;;;;0.70;0.17;;;22.10;99.90;;;;;;5011273;28;20532;-73
2022/05/19 05:59:23;;;;;;;0.70;0.10;;;22.20;99.90;;;;;;5012061;28;20470;-74
2022/05/19 06:01:51;;;;;;;0.70;0.10;;;22.20;99.90;;;;;;5013112;28;20967;-73
2022/05/19 06:04:19;;;;;;;0.70;0.20;;;22.20;99.90;;;;;;5014214;28;20553;-73
2022/05/19 06:06:47;;;;;;;0.70;0.10;;;22.20;99.90;;;;;;5012873;28;20471;-73
2022/05/19 06:09:16;;;;;;;0.70;0.10;;;22.20;99.90;;;;;;5011507;28;20477;-72
2022/05/19 06:11:44;;;;;;;0.70;0.10;;;22.20;99.90;;;;;;5012344;28;20444;-73
2022/05/19 06:14:12;;;;;;;0.70;0.10;;;22.20;99.90;;;;;;5010206;28;20951;-73
2022/05/19 06:16:40;;;;;;;0.80;0.47;;;22.30;99.90;;;;;;5012226;28;20448;-72
2022/05/19 06:19:08;;;;;;;0.70;0.10;;;22.20;99.90;;;;;;5012194;28;20832;-73
2022/05/19 06:21:39;;;;;;;0.70;0.10;;;22.20;99.90;;;;;;5012500;28;20507;-74
2022/05/19 06:24:09;;;;;;;0.70;0.10;;;22.20;99.90;;;;;;5012821;28;20452;-73
2022/05/19 06:26:40;;;;;;;0.70;0.10;;;22.10;99.90;;;;;;5012290;28;20452;-72
2022/05/19 06:29:08;;;;;;;0.70;0.10;;;22.00;99.90;;;;;;5013117;28;20469;-73
2022/05/19 06:31:36;;;;;;;0.70;0.10;;;22.00;99.90;;;;;;5012393;28;20574;-72
2022/05/19 06:34:04;;;;;;;0.70;0.13;;;22.00;99.90;;;;;;5012383;28;20530;-73
2022/05/19 06:36:32;;;;;;;0.70;0.20;;;22.00;99.90;;;;;;5011268;28;20821;-72
2022/05/19 06:39:00;;;;;;;0.70;0.10;;;22.10;99.90;;;;;;5011767;28;20507;-73
2022/05/19 06:44:17;;;;;;;0.70;0.10;;;22.20;99.90;;;;;;5012106;28;20449;-74
2022/05/19 06:46:45;;;;;;;0.70;0.17;;;22.20;99.90;;;;;;5011114;28;20543;-73
2022/05/19 06:49:13;;;;;;;0.70;0.20;;;22.30;99.90;;;;;;5011654;28;20911;-72
2022/05/19 06:51:41;;;;;;;0.70;0.10;;;22.40;99.90;;;;;;5011604;28;20336;-72
2022/05/19 06:54:09;;;;;;;0.70;0.17;;;22.40;99.90;;;;;;5011683;28;20532;-72
2022/05/19 06:56:37;;;;;;;2.80;1.70;;;22.50;99.90;;;;;;5015294;28;20457;-72
2022/05/19 06:59:05;;;;;;;1.57;0.90;;;22.40;99.90;;;;;;5015207;28;20469;-72
2022/05/19 07:01:34;;;;;;;0.70;0.10;;;22.40;99.90;;;;;;5015337;28;20491;-73
2022/05/19 07:04:03;;;;;;;0.70;0.10;;;22.50;99.90;;;;;;5014940;28;20833;-74
2022/05/19 07:06:30;;;;;;;0.70;0.20;;;22.50;99.90;;;;;;5014983;28;20506;-74
2022/05/19 07:08:58;;;;;;;0.70;0.10;;;22.80;99.90;;;;;;5014287;28;20950;-73
2022/05/19 07:11:26;;;;;;;0.70;0.10;;;22.80;99.90;;;;;;5014990;28;20912;-72
2022/05/19 07:13:59;;;;;;;0.70;0.15;;;22.90;99.90;;;;;;5014890;28;20440;-73
2022/05/19 07:16:27;;;;;;;0.70;0.10;;;23.00;99.90;;;;;;5014822;28;20222;-72
2022/05/19 07:20:43;;;;;;;0.70;0.10;;;23.30;99.90;;;;;;5015164;28;20480;-72
2022/05/19 07:21:45;;;;;;;0.70;0.17;;;23.40;99.90;;;;;;5015384;28;20484;-72
2022/05/19 07:24:16;;;;;;;0.70;0.10;;;23.40;99.90;;;;;;5014633;28;20454;-74
2022/05/19 07:26:45;;;;;;;0.70;0.10;;;23.30;99.90;;;;;;5007157;28;20472;-73
2022/05/19 07:29:13;;;;;;;0.70;0.20;;;23.30;99.90;;;;;;4995234;28;20475;-72
2022/05/19 07:31:41;;;;;;;0.70;0.20;;;23.30;99.90;;;;;;4996065;28;20486;-73
2022/05/19 07:34:12;;;;;;;0.70;0.20;;;23.40;99.90;;;;;;4995671;28;20446;-72
2022/05/19 07:36:41;;;;;;;0.80;0.30;;;23.50;99.90;;;;;;4995390;28;20558;-72
2022/05/19 07:39:11;;;;;;;0.70;0.20;;;23.60;99.90;;;;;;4995636;28;20463;-73
2022/05/19 07:41:39;;;;;;;0.70;0.10;;;;;;;;;;4995588;28;20477;-73
2022/05/19 07:44:08;;;;;;;0.70;0.10;;;23.60;99.90;;;;;;4995331;28;20454;-73
2022/05/19 07:46:36;;;;;;;0.80;0.40;;;23.60;99.90;;;;;;4996260;28;20453;-72
2022/05/19 07:49:04;;;;;;;0.70;0.10;;;23.70;99.90;;;;;;4995528;28;20472;-73
2022/05/19 07:51:37;;;;;;;0.70;0.20;;;23.80;99.90;;;;;;4995715;28;20804;-72
2022/05/19 07:54:06;;;;;;;0.70;0.30;;;23.80;99.90;;;;;;4995351;28;21021;-72
2022/05/19 07:56:35;;;;;;;0.70;0.10;;;23.90;99.90;;;;;;4995094;28;20447;-72
2022/05/19 07:59:04;;;;;;;0.70;0.20;;;24.00;99.90;;;;;;4995644;28;20474;-73
2022/05/19 08:01:32;;;;;;;0.70;0.10;;;;;;;;;;4995044;28;20483;-72
2022/05/19 08:04:00;;;;;;;0.70;0.10;;;24.20;99.90;;;;;;4995371;28;20501;-73
2022/05/19 08:06:29;;;;;;;0.70;0.10;;;24.20;99.90;;;;;;4994289;28;20483;-72
2022/05/19 08:08:59;;;;;;;0.70;0.10;;;;;;;;;;4993918;28;20977;-72
2022/05/19 08:11:28;;;;;;;0.70;0.20;;;24.30;99.90;;;;;;4995513;28;20473;-71
2022/05/19 08:16:42;;;;;;;0.70;0.20;;;24.40;99.90;;;;;;5013574;28;20539;-73
2022/05/19 08:19:10;;;;;;;0.70;0.20;;;24.30;99.90;;;;;;5013842;28;20921;-73
2022/05/19 08:21:38;;;;;;;0.70;0.13;;;24.30;99.90;;;;;;5014110;28;20481;-73
2022/05/19 08:24:09;;;;;;;0.70;0.10;;;24.40;99.90;;;;;;5012378;28;20527;-73
2022/05/19 08:26:36;;;;;;;0.70;0.10;;;24.40;99.90;;;;;;5011795;28;20453;-72
2022/05/19 08:29:04;;;;;;;0.70;0.10;;;24.50;99.90;;;;;;5012132;28;20465;-73
2022/05/19 08:31:32;;;;;;;0.70;0.20;;;24.60;99.90;;;;;;5012260;28;20936;-73
2022/05/19 08:34:03;;;;;;;0.70;0.20;;;24.70;99.90;;;;;;5011870;28;20537;-72
2022/05/19 08:36:31;;;;;;;0.70;0.20;;;24.80;99.90;;;;;;5004299;28;20449;-73
2022/05/19 08:38:59;;;;;;;0.70;0.20;;;25.00;99.90;;;;;;5012204;28;20450;-74
2022/05/19 08:41:32;;;;;;;0.70;0.13;;;25.00;99.90;;;;;;5014400;28;20480;-73
2022/05/19 08:44:04;;;;;;;0.70;0.20;;;25.10;99.90;;;;;;5014964;28;20219;-73
2022/05/19 08:46:36;;;;;;;0.70;0.20;;;25.10;99.90;;;;;;5013708;28;20453;-72
2022/05/19 08:49:09;;;;;;;0.70;0.13;;;25.10;99.90;;;;;;5014116;28;20596;-73
2022/05/19 08:51:43;;;;;;;0.70;0.10;;;25.10;99.90;;;;;;5013861;28;20672;-74
2022/05/19 08:54:16;;;;;;;0.70;0.20;;;25.10;99.90;;;;;;5014472;28;20443;-72
2022/05/19 08:56:56;;;;;;;0.70;0.10;;;25.20;99.90;;;;;;5013433;28;21013;-73
2022/05/19 08:59:35;;;;;;;0.70;0.20;;;25.40;99.90;;;;;;5014139;28;20470;-72
2022/05/19 09:02:07;;;;;;;0.70;0.10;;;25.40;99.90;;;;;;5012936;28;20565;-73
2022/05/19 09:04:48;;;;;;;0.70;0.20;;;25.50;99.90;;;;;;5013762;28;20457;-73
2022/05/19 09:10:24;;;;;;;0.70;0.10;;;25.60;99.90;;;;;;5012782;28;20829;-74
2022/05/19 09:13:02;;;;;;;0.70;0.20;;;25.70;99.90;;;;;;5013573;28;20450;-72
2022/05/19 09:15:30;;;;;;;0.70;0.20;;;25.80;99.90;;;;;;5013331;28;20452;-73
2022/05/19 09:17:58;;;;;;;0.70;0.20;;;25.80;99.90;;;;;;5011861;28;20683;-72
2022/05/19 09:20:32;;;;;;;0.70;0.10;;;25.80;99.90;;;;;;5013047;28;20471;-73
2022/05/19 09:23:02;;;;;;;0.70;0.10;;;25.90;99.90;;;;;;5012760;28;20567;-72
2022/05/19 09:25:30;;;;;;;0.70;0.20;;;25.90;99.90;;;;;;5012997;28;20476;-73
2022/05/19 09:28:01;;;;;;;0.70;0.10;;;25.90;99.90;;;;;;4995206;28;20508;-72
2022/05/19 09:30:32;;;;;;;0.70;0.10;;;26.00;99.90;;;;;;4993835;28;20574;-73
2022/05/19 09:33:01;;;;;;;0.70;0.20;;;26.10;99.90;;;;;;4993548;28;20445;-73
2022/05/19 09:35:37;;;;;;;0.70;0.20;;;26.20;99.90;;;;;;4992661;28;20452;-72
2022/05/19 09:38:12;;;;;;;0.70;0.10;;;26.20;99.90;;;;;;4992812;28;20933;-73
2022/05/19 09:40:43;;;;;;;0.70;0.20;;;26.30;99.90;;;;;;4993303;28;20464;-72
2022/05/19 09:43:19;;;;;;;0.70;0.20;;;26.40;99.90;;;;;;4992933;28;20899;-73
2022/05/19 09:45:49;;;;;;;0.70;0.10;;;;;;;;;;4993235;28;20973;-72
2022/05/19 09:48:24;;;;;;;0.70;0.20;;;26.50;99.90;;;;;;4993427;28;20900;-73
2022/05/19 09:50:52;;;;;;;0.70;0.10;;;26.50;99.90;;;;;;4993815;28;20547;-73
2022/05/19 09:53:24;;;;;;;0.70;0.10;;;26.60;99.90;;;;;;4993245;28;20452;-73
2022/05/19 09:55:56;;;;;;;0.70;0.20;;;26.70;99.90;;;;;;4993750;28;20454;-73
2022/05/19 09:58:28;;;;;;;0.70;0.10;;;26.70;99.90;;;;;;4995534;28;20455;-73
2022/05/19 10:01:00;;;;;;;0.70;0.10;;;26.80;99.90;;;;;;5002722;28;20468;-72
2022/05/19 10:03:36;;;;;;;0.70;0.20;;;26.90;99.90;;;;;;4997706;28;20488;-72
2022/05/19 10:06:07;;;;;;;0.70;0.17;;;27.10;99.90;;;;;;4992803;28;20448;-72
2022/05/19 10:08:39;;;;;;;0.70;0.20;;;;;;;;;;4993440;28;20214;-73
2022/05/19 10:11:21;;;;;;;0.70;0.10;;;27.20;99.90;;;;;;4993778;28;20221;-73
2022/05/19 10:14:06;;;;;;;0.70;0.20;;;27.30;99.90;;;;;;4993880;28;20926;-73
2022/05/19 10:16:51;;;;;;;0.70;0.10;;;27.30;99.90;;;;;;4986078;28;20672;-74
2022/05/19 10:19:33;;;;;;;0.70;0.10;;;27.50;99.90;;;;;;4993117;28;20471;-72
2022/05/19 10:22:38;;;;;;;0.70;0.20;;;27.50;99.90;;;;;;4992588;28;20575;-72
2022/05/19 10:25:16;;;;;;;0.70;0.10;;;27.60;99.90;;;;;;4982779;28;20625;-72
2022/05/19 10:31:04;;;;;;;1.57;0.83;;;27.70;99.90;;;;;;4976402;28;20460;-72
2022/05/19 10:33:53;;;;;;;0.70;0.10;;;;;;;;;;5015045;28;20482;-73
2022/05/19 10:36:27;;;;;;;0.70;0.10;;;27.90;99.90;;;;;;5014973;28;20221;-73
2022/05/19 10:39:23;;;;;;;0.70;0.10;;;28.20;99.90;;;;;;5013617;28;20458;-73
2022/05/19 10:42:00;;;;;;;0.70;0.10;;;28.20;99.90;;;;;;5011715;28;20756;-73
2022/05/19 10:44:52;;;;;;;0.70;0.10;;;28.40;99.90;;;;;;5011479;28;20454;-73
2022/05/19 10:47:38;;;;;;;0.70;0.20;;;28.40;99.90;;;;;;5011085;28;20989;-72
2022/05/19 10:50:21;;;;;;;0.90;0.40;;;28.50;99.90;;;;;;5011459;28;20464;-73
2022/05/19 10:53:07;;;;;;;0.70;0.10;;;28.40;99.90;;;;;;5011195;28;20447;-74
2022/05/19 10:55:43;;;;;;;0.70;0.20;;;28.50;99.90;;;;;;5011267;28;20475;-73
2022/05/19 10:58:39;;;;;;;0.70;0.10;;;28.60;99.90;;;;;;5010920;28;20448;-73
2022/05/19 11:01:15;;;;;;;0.77;0.27;;;28.60;99.90;;;;;;5006756;28;20448;-73
2022/05/19 11:03:58;;;;;;;0.70;0.20;;;28.70;99.90;;;;;;5012791;28;20545;-72
2022/05/19 11:06:55;;;;;;;0.70;0.10;;;28.60;99.90;;;;;;5013560;28;20515;-72
2022/05/19 11:09:33;;;;;;;0.80;0.30;;;28.70;99.90;;;;;;5013529;28;20471;-72
2022/05/19 11:12:10;;;;;;;0.70;0.20;;;28.70;99.90;;;;;;5012894;28;20517;-74
2022/05/19 11:14:57;;;;;;;0.70;0.20;;;28.80;99.90;;;;;;5013988;28;20443;-72
2022/05/19 11:17:37;;;;;;;0.70;0.20;;;28.80;99.90;;;;;;5013947;28;20927;-73
2022/05/19 11:20:11;;;;;;;0.70;0.10;;;28.90;99.90;;;;;;5013729;28;20471;-73
2022/05/19 11:22:41;;;;;;;0.70;0.20;;;28.90;99.90;;;;;;5012545;28;20583;-73
2022/05/19 11:28:04;;;;;;;0.70;0.10;;;28.80;99.90;;;;;;4993669;28;20892;-72
2022/05/19 11:30:38;;;;;;;0.70;0.20;;;28.80;99.90;;;;;;4993471;28;21003;-73
2022/05/19 11:33:12;;;;;;;0.70;0.20;;;28.80;99.90;;;;;;4994905;28;20448;-72
2022/05/19 11:35:47;;;;;;;0.70;0.10;;;28.80;99.90;;;;;;4992650;28;20491;-73
2022/05/19 11:38:22;;;;;;;0.70;0.10;;;28.80;99.90;;;;;;4991840;28;20441;-74
2022/05/19 11:40:54;;;;;;;0.70;0.10;;;28.80;99.90;;;;;;4993693;28;20836;-73
2022/05/19 11:43:29;;;;;;;0.80;0.40;;;28.80;99.90;;;;;;4997186;28;20481;-73
2022/05/19 11:46:02;;;;;;;1.63;0.60;;;28.60;99.90;;;;;;4995594;28;20463;-72
2022/05/19 11:57:23;;;;;;;0.70;0.10;;;28.60;99.90;;;;;;4995031;28;20454;-74
2022/05/19 12:00:02;;;;;;;0.70;0.20;;;28.50;99.90;;;;;;4996719;28;20511;-73
2022/05/19 12:02:38;;;;;;;0.70;0.10;;;28.40;99.90;;;;;;4995662;28;20491;-73
2022/05/19 12:05:12;;;;;;;0.83;0.60;;;28.50;99.90;;;;;;4994882;28;20849;-72
2022/05/19 12:07:51;;;;;;;0.70;0.10;;;28.50;99.90;;;;;;4994032;28;20543;-73
2022/05/19 12:10:26;;;;;;;0.70;0.13;;;28.60;99.90;;;;;;4994979;28;20799;-73
2022/05/19 12:12:59;;;;;;;0.70;0.17;;;28.60;99.90;;;;;;4994648;28;20441;-73
2022/05/19 12:15:36;;;;;;;1.47;1.37;;;28.60;99.90;;;;;;4994303;28;20475;-73
2022/05/19 12:18:11;;;;;;;0.70;0.20;;;28.60;99.90;;;;;;4994217;28;20536;-73
2022/05/19 12:21:21;;;;;;;0.70;0.10;;;28.70;99.90;;;;;;4993920;28;20456;-72
2022/05/19 12:23:50;;;;;;;0.70;0.20;;;28.80;99.90;;;;;;4969771;28;20496;-72
2022/05/19 12:26:24;;;;;;;0.70;0.20;;;29.00;99.90;;;;;;4993145;28;20213;-72
2022/05/19 12:29:12;;;;;;;0.70;0.20;;;29.30;99.90;;;;;;4994070;28;20527;-73
2022/05/19 12:31:59;;;;;;;0.70;0.20;;;29.40;99.90;;;;;;4993781;28;20460;-73
2022/05/19 12:34:32;;;;;;;2.00;0.57;;;29.40;99.90;;;;;;4993346;28;20451;-73
2022/05/19 12:37:30;;;;;;;0.70;0.20;;;29.40;99.90;;;;;;4993984;28;20469;-72
2022/05/19 12:43:07;;;;;;;0.70;0.20;;;29.10;99.90;;;;;;5097433;27;20569;-74
2022/05/19 12:45:43;;;;;;;0.90;0.50;;;29.10;99.90;;;;;;5064786;28;20470;-73
2022/05/19 12:48:25;;;;;;;0.70;0.20;;;29.20;99.90;;;;;;5064791;28;20444;-72
2022/05/19 12:51:12;;;;;;;0.70;0.10;;;29.40;99.90;;;;;;5065054;28;20878;-72
2022/05/19 12:53:43;;;;;;;1.00;0.57;;;29.60;99.90;;;;;;5066224;28;20441;-72
2022/05/19 12:56:35;;;;;;;1.00;0.60;;;29.80;99.90;;;;;;5065026;28;20529;-72
2022/05/19 12:59:07;;;;;;;0.70;0.20;;;29.90;99.90;;;;;;5066293;28;20852;-73
2022/05/19 13:01:37;;;;;;;0.70;0.20;;;29.90;99.90;;;;;;5065715;28;20487;-73
2022/05/19 13:04:17;;;;;;;0.70;0.17;;;29.90;99.90;;;;;;5064498;28;20955;-72
2022/05/19 13:06:53;;;;;;;0.70;0.10;;;30.30;99.90;;;;;;5064153;28;20442;-73
2022/05/19 13:09:28;;;;;;;0.70;0.10;;;30.40;99.90;;;;;;5064461;28;20454;-73
2022/05/19 13:12:00;;;;;;;0.70;0.10;;;30.40;99.90;;;;;;5064216;28;20603;-72
2022/05/19 13:14:34;;;;;;;0.70;0.13;;;30.40;99.90;;;;;;5064543;28;20448;-73
2022/05/19 13:17:16;;;;;;;1.33;0.83;;;30.60;99.90;;;;;;5064603;28;20596;-73
2022/05/19 13:19:44;;;;;;;0.70;0.10;;;30.70;99.90;;;;;;5064448;28;20454;-72
2022/05/19 13:22:21;;;;;;;0.70;0.10;;;30.80;99.90;;;;;;5064265;28;20512;-72
2022/05/19 13:24:49;;;;;;;0.70;0.17;;;30.90;99.90;;;;;;5064781;28;20812;-72
2022/05/19 13:30:26;;;;;;;0.70;0.10;;;30.70;99.90;;;;;;5084330;28;20640;-73
2022/05/19 13:33:06;;;;;;;0.70;0.10;;;30.60;99.90;;;;;;5083797;28;20492;-73
2022/05/19 13:35:34;;;;;;;0.90;0.40;;;30.50;99.90;;;;;;5084215;28;20847;-72
2022/05/19 13:38:15;;;;;;;0.70;0.10;;;30.50;99.90;;;;;;5084129;28;20954;-74
2022/05/19 13:40:43;;;;;;;1.47;0.40;;;30.60;99.90;;;;;;5083999;28;20939;-72
2022/05/19 13:43:14;;;;;;;0.70;0.17;;;30.50;99.90;;;;;;5083774;28;20480;-72